LSZR/ACH METAR and TAF weather

Enter ICAO airport designator
Station Type Date Time Source
LSZR METAR 2020/11/27 14:20 UTC NOAA

LSZR 271420Z 22005KT 9000 BKN006 03/03 Q1019 NOSIG RMK J


Station Type Date Time Source
LSZR Decoded METAR 2020/11/27 14:20 UTC NOAA

Saint Gallen-Altenrhein, Switzerland (LSZR) 47-29-06N 009-33-43E
Nov 27, 2020 - 09:20 AM EST / 2020.11.27 1420 UTC
Wind: from the SW (220 degrees) at 6 MPH (5 KT):0
Visibility: 5 mile(s):0
Sky conditions: mostly cloudy
Temperature: 37 F (3 C)
Dew Point: 37 F (3 C)
Relative Humidity: 100%
Pressure (altimeter): 30.09 in. Hg (1019 hPa)
ob: LSZR 271420Z 22005KT 9000 BKN006 03/03 Q1019 NOSIG RMK J
cycle: 14

Station Type Date Time Source
LSZR TAF 2014/12/22 20:03 UTC NOAA

TAF
AMD LSZR 222054Z 2220/2224 CNL

Example: see airport list